Time;durP1;ratioP1;P1;durP2;ratioP2;P2;SDS_P1;SDS_P2;PMS_P1;PMS_P2;Temp;Humidity;BMP_temperature;BMP_pressure;BME280_temperature;BME280_humidity;BME280_pressure;Samples;Min_cycle;Max_cycle;Signal;HPM_P1;HPM_P2
2023/04/07 00:01:03;;;;;;;25.05;15.00;;;;;;;9.08;100.00;101375.19;5095175;28;20510;-74
2023/04/07 00:03:29;;;;;;;25.48;14.70;;;;;;;8.98;100.00;101368.75;5095243;28;20028;-74
2023/04/07 00:05:54;;;;;;;28.77;15.32;;;;;;;9.04;100.00;101373.31;5094952;28;20056;-74
2023/04/07 00:08:20;;;;;;;22.20;13.80;;;;;;;9.02;100.00;101373.25;5095332;28;20029;-74
2023/04/07 00:10:45;;;;;;;24.77;15.00;;;;;;;9.02;100.00;101369.75;5076768;28;20493;-74
2023/04/07 00:13:11;;;;;;;25.02;14.10;;;;;;;9.03;100.00;101376.78;5095316;28;20462;-74
2023/04/07 00:15:36;;;;;;;26.65;15.15;;;;;;;9.02;100.00;101373.25;5094891;28;20035;-74
2023/04/07 00:18:02;;;;;;;24.48;13.68;;;;;;;9.04;100.00;101386.50;5094880;28;20052;-74
2023/04/07 00:20:27;;;;;;;24.63;14.35;;;;;;;9.00;100.00;101382.88;5094926;28;20452;-74
2023/04/07 00:22:56;;;;;;;22.80;13.93;;;;;;;8.99;100.00;101380.19;5095044;28;20020;-74
2023/04/07 00:25:21;;;;;;;22.98;13.40;;;;;;;8.93;100.00;101380.06;5095148;28;20020;-74
2023/04/07 00:27:46;;;;;;;25.77;13.90;;;;;;;8.91;100.00;101380.03;5094703;28;20054;-72
2023/04/07 00:30:14;;;;;;;20.33;12.57;;;;;;;8.91;100.00;101390.56;5094621;28;20100;-72
2023/04/07 00:32:39;;;;;;;24.13;13.15;;;;;;;8.89;100.00;101380.81;5094527;28;20397;-74
2023/04/07 00:35:05;;;;;;;19.70;11.27;;;;;;;8.84;100.00;101383.34;5094601;28;20032;-74
2023/04/07 00:37:30;;;;;;;18.88;11.32;;;;;;;8.82;100.00;101386.78;5094890;28;20035;-74
2023/04/07 00:39:58;;;;;;;16.65;10.90;;;;;;;8.83;100.00;101385.94;5094657;28;20491;-74
2023/04/07 00:42:23;;;;;;;17.02;10.85;;;;;;;8.77;100.00;101382.25;5094534;28;20111;-74
2023/04/07 00:44:49;;;;;;;18.08;10.55;;;;;;;8.78;100.00;101385.81;5094257;28;20105;-74
2023/04/07 00:47:14;;;;;;;16.77;9.43;;;;;;;8.78;100.00;101385.81;5094267;28;20157;-74
2023/04/07 00:49:40;;;;;;;15.90;9.32;;;;;;;8.80;100.00;101391.13;5093732;28;20592;-74
2023/04/07 00:52:06;;;;;;;16.48;9.20;;;;;;;8.75;100.00;101385.72;5094271;28;20027;-74
2023/04/07 00:54:32;;;;;;;16.75;8.98;;;;;;;8.74;100.00;101381.31;5094266;28;20117;-74
2023/04/07 00:56:57;;;;;;;16.10;8.88;;;;;;;8.76;100.00;101382.25;5094493;28;20156;-74
2023/04/07 00:59:24;;;;;;;14.75;9.38;;;;;;;8.76;100.00;101384.88;5094138;28;20385;-74
2023/04/07 01:01:58;;;;;;;19.30;10.07;;;;;;;8.76;100.00;101376.97;5093911;28;20118;-74
2023/04/07 01:04:31;;;;;;;19.17;9.95;;;;;;;8.75;100.00;101376.09;5094153;28;20580;-74
2023/04/07 01:07:08;;;;;;;21.10;10.13;;;;;;;8.73;100.00;101371.59;5093835;28;20052;-73
2023/04/07 01:09:40;;;;;;;13.82;9.52;;;;;;;8.75;100.00;101377.81;5094075;28;20028;-74
2023/04/07 01:12:31;;;;;;;18.13;9.95;;;;;;;8.73;100.00;101383.03;5093983;28;20036;-73
2023/04/07 01:15:08;;;;;;;17.75;10.00;;;;;;;8.70;100.00;101372.44;5094082;28;20024;-74
2023/04/07 01:17:37;;;;;;;18.77;10.10;;;;;;;8.71;100.00;101374.22;5094033;28;20056;-72
2023/04/07 01:20:07;;;;;;;19.52;9.57;;;;;;;8.70;100.00;101380.34;5093811;28;20024;-72
2023/04/07 01:22:46;;;;;;;15.20;9.65;;;;;;;8.68;100.00;101373.22;5093896;28;20119;-73
2023/04/07 01:25:37;;;;;;;19.35;9.00;;;;;;;8.71;100.00;101390.03;5093935;28;20020;-74
2023/04/07 01:28:03;;;;;;;15.70;8.73;;;;;;;8.66;100.00;101389.00;5093799;28;20016;-74
2023/04/07 01:30:31;;;;;;;14.25;8.70;;;;;;;8.63;100.00;101385.41;5093635;28;20468;-74
2023/04/07 01:32:58;;;;;;;15.90;8.90;;;;;;;8.63;100.00;101388.03;5093573;28;20469;-74
2023/04/07 01:35:28;;;;;;;18.98;8.40;;;;;;;8.64;100.00;101388.06;5093516;28;20496;-74
2023/04/07 01:37:59;;;;;;;14.48;7.80;;;;;;;8.64;100.00;101392.44;5093507;28;20024;-74
2023/04/07 01:40:25;;;;;;;15.38;7.82;;;;;;;8.60;100.00;101391.47;5093496;28;20532;-74
2023/04/07 01:42:52;;;;;;;13.45;7.13;;;;;;;8.58;100.00;101397.56;5075269;28;20083;-74
2023/04/07 01:45:19;;;;;;;17.17;7.35;;;;;;;8.58;100.00;101392.28;5093348;28;20012;-74
2023/04/07 01:47:45;;;;;;;14.10;6.93;;;;;;;8.57;100.00;101398.41;5093468;28;20024;-74
2023/04/07 01:50:11;;;;;;;15.30;7.53;;;;;;;8.57;100.00;101399.31;5093374;28;20481;-74
2023/04/07 01:52:38;;;;;;;11.05;6.55;;;;;;;8.56;100.00;101413.28;5093273;28;20381;-74
2023/04/07 01:55:05;;;;;;;11.77;6.50;;;;;;;8.55;100.00;101410.63;5093236;28;20063;-74
2023/04/07 01:57:30;;;;;;;13.30;6.28;;;;;;;8.58;100.00;101423.91;5093376;28;20036;-74
2023/04/07 01:59:56;;;;;;;9.60;5.55;;;;;;;8.58;100.00;101414.25;5093045;28;20028;-74
2023/04/07 02:02:21;;;;;;;10.10;5.55;;;;;;;8.48;100.00;101406.94;5093010;28;20133;-74
2023/04/07 02:04:52;;;;;;;10.20;5.55;;;;;;;8.56;100.00;101418.56;5099165;22;20056;-72
2023/04/07 02:07:30;;;;;;;10.35;5.50;;;;;;;8.53;100.00;101418.50;5072911;28;20017;-73
2023/04/07 02:09:57;;;;;;;9.13;5.50;;;;;;;8.55;100.00;101422.06;5074402;28;20089;-73
2023/04/07 02:12:28;;;;;;;9.98;5.47;;;;;;;8.57;100.00;101424.75;5074906;28;20028;-73
2023/04/07 02:14:55;;;;;;;11.27;5.47;;;;;;;8.57;100.00;101417.75;5074280;28;20028;-73
2023/04/07 02:17:23;;;;;;;9.70;5.38;;;;;;;8.60;100.00;101430.97;5073078;28;20028;-73
2023/04/07 02:19:51;;;;;;;13.82;5.68;;;;;;;8.57;100.00;101422.13;5072786;28;20021;-73
2023/04/07 02:22:17;;;;;;;9.70;5.05;;;;;;;8.54;100.00;101420.28;5073025;28;20078;-73
2023/04/07 02:24:51;;;;;;;9.95;5.10;;;;;;;8.51;100.00;101425.44;5072763;28;20040;-73
2023/04/07 02:27:16;;;;;;;10.02;5.15;;;;;;;8.50;100.00;101419.28;5072849;28;20024;-73
2023/04/07 02:29:42;;;;;;;10.93;5.78;;;;;;;8.51;100.00;101417.56;5073013;28;20094;-73
2023/04/07 02:32:07;;;;;;;8.38;5.03;;;;;;;8.50;100.00;101421.03;5072595;28;20126;-73
2023/04/07 02:34:33;;;;;;;8.63;4.93;;;;;;;8.52;100.00;101416.69;5072733;28;20123;-73
2023/04/07 02:36:58;;;;;;;8.60;4.75;;;;;;;8.51;100.00;101417.56;5072656;28;20040;-73
2023/04/07 02:39:23;;;;;;;10.25;5.05;;;;;;;8.47;100.00;101419.19;5072599;28;20742;-73
2023/04/07 02:41:49;;;;;;;11.02;5.22;;;;;;;8.49;100.00;101412.25;5072448;28;20031;-73
2023/04/07 02:44:14;;;;;;;7.78;4.90;;;;;;;8.47;100.00;101420.94;5072561;28;20036;-73
2023/04/07 02:46:40;;;;;;;10.98;5.55;;;;;;;8.49;100.00;101420.16;5071066;28;20169;-73
2023/04/07 02:49:06;;;;;;;9.63;5.25;;;;;;;8.50;100.00;101428.94;5072662;28;20029;-72
2023/04/07 02:51:31;;;;;;;7.93;5.15;;;;;;;8.52;100.00;101419.31;5072470;28;20119;-73
2023/04/07 02:53:57;;;;;;;10.80;4.85;;;;;;;8.53;100.00;101422.03;5072495;28;20385;-73
2023/04/07 02:56:22;;;;;;;11.65;4.78;;;;;;;8.56;100.00;101417.69;5072604;28;20131;-73
2023/04/07 02:58:47;;;;;;;10.25;5.40;;;;;;;8.57;100.00;101420.38;5072363;28;20024;-73
2023/04/07 03:01:15;;;;;;;10.73;5.63;;;;;;;8.58;100.00;101418.63;5072388;28;20116;-73
2023/04/07 03:03:43;;;;;;;7.85;4.93;;;;;;;8.59;100.00;101417.78;5070999;28;20044;-73
2023/04/07 03:06:09;;;;;;;10.73;4.85;;;;;;;8.60;100.00;101420.44;5072310;28;20031;-73
2023/04/07 03:08:34;;;;;;;9.88;5.40;;;;;;;8.58;100.00;101416.00;5072646;28;20020;-73
2023/04/07 03:11:00;;;;;;;9.85;5.00;;;;;;;8.56;100.00;101421.19;5072061;28;20122;-73
2023/04/07 03:13:29;;;;;;;13.55;5.57;;;;;;;8.57;100.00;101428.28;5074126;28;20025;-72
2023/04/07 03:15:55;;;;;;;12.45;5.10;;;;;;;8.60;100.00;101417.81;5076076;28;20039;-72
2023/04/07 03:18:21;;;;;;;9.68;5.10;;;;;;;8.57;100.00;101409.84;5076113;28;20082;-73
2023/04/07 03:20:47;;;;;;;8.35;4.60;;;;;;;8.60;100.00;101415.16;5075765;28;20032;-73
2023/04/07 03:23:13;;;;;;;10.13;5.25;;;;;;;8.61;100.00;101422.25;5075727;28;20430;-73
2023/04/07 03:25:40;;;;;;;10.57;5.78;;;;;;;8.56;100.00;101426.47;5075609;28;20055;-73
2023/04/07 03:28:05;;;;;;;11.13;4.82;;;;;;;8.55;100.00;101421.16;5075994;28;20055;-73
2023/04/07 03:30:31;;;;;;;8.93;5.22;;;;;;;8.50;100.00;101421.94;5075578;28;20423;-73
2023/04/07 03:32:56;;;;;;;9.82;5.10;;;;;;;8.51;100.00;101415.81;5075466;28;20107;-73
2023/04/07 03:35:21;;;;;;;13.20;5.00;;;;;;;8.50;100.00;101423.69;5075778;28;20351;-73
2023/04/07 03:37:47;;;;;;;9.30;4.82;;;;;;;8.53;100.00;101421.13;5075731;28;20024;-73
2023/04/07 03:40:12;;;;;;;10.88;4.93;;;;;;;8.55;100.00;101421.16;5074290;28;20432;-73
2023/04/07 03:42:38;;;;;;;8.75;5.10;;;;;;;8.57;100.00;101428.28;5075330;28;20489;-73
2023/04/07 03:45:04;;;;;;;8.18;4.93;;;;;;;8.58;100.00;101430.06;5075457;28;20033;-73
2023/04/07 03:47:29;;;;;;;8.77;5.20;;;;;;;8.58;100.00;101429.16;5075451;28;20039;-73
2023/04/07 03:49:55;;;;;;;8.98;5.15;;;;;;;8.61;100.00;101424.88;5075493;28;20037;-72
2023/04/07 03:52:20;;;;;;;10.95;5.63;;;;;;;8.63;100.00;101432.81;5075464;28;20488;-73
2023/04/07 03:54:46;;;;;;;11.35;5.70;;;;;;;8.64;100.00;101424.94;5075112;28;20028;-73
2023/04/07 03:57:11;;;;;;;13.18;6.15;;;;;;;8.66;100.00;101436.44;5075111;28;20029;-72
2023/04/07 03:59:37;;;;;;;12.20;6.25;;;;;;;8.67;100.00;101437.31;5075146;28;20029;-73
2023/04/07 04:02:05;;;;;;;14.95;6.65;;;;;;;8.64;100.00;101427.56;5075217;28;20497;-73
2023/04/07 04:04:30;;;;;;;12.57;6.88;;;;;;;8.64;100.00;101432.84;5074529;28;20052;-72
2023/04/07 04:06:55;;;;;;;17.20;7.65;;;;;;;8.64;100.00;101435.47;5074877;28;20086;-72
2023/04/07 04:09:21;;;;;;;16.73;8.63;;;;;;;8.67;100.00;101432.06;5074936;28;20074;-73
2023/04/07 04:11:46;;;;;;;16.75;8.23;;;;;;;8.65;100.00;101433.72;5073345;28;20083;-72
2023/04/07 04:14:12;;;;;;;12.75;8.15;;;;;;;8.65;100.00;101431.09;5074687;28;20228;-72
2023/04/07 04:16:37;;;;;;;18.77;9.80;;;;;;;8.65;100.00;101433.72;5074786;28;20074;-73
2023/04/07 04:19:02;;;;;;;21.40;9.02;;;;;;;8.63;100.00;101433.69;5074703;28;20033;-73
2023/04/07 04:21:28;;;;;;;21.17;10.02;;;;;;;8.63;100.00;101428.44;5074676;28;20111;-74
2023/04/07 04:23:53;;;;;;;15.52;9.20;;;;;;;8.61;100.00;101430.16;5074608;28;20477;-73
2023/04/07 04:26:19;;;;;;;18.42;9.30;;;;;;;8.57;100.00;101438.81;5074462;28;20539;-73
2023/04/07 04:28:45;;;;;;;18.50;8.93;;;;;;;8.58;100.00;101437.97;5074549;28;20029;-73
2023/04/07 04:31:10;;;;;;;14.82;8.38;;;;;;;8.57;100.00;101432.66;5074394;28;20070;-73
2023/04/07 04:33:36;;;;;;;17.58;8.82;;;;;;;8.47;100.00;101429.72;5074514;28;20070;-73
2023/04/07 04:36:01;;;;;;;19.42;9.43;;;;;;;8.52;100.00;101441.31;5074239;28;20071;-73
2023/04/07 04:38:27;;;;;;;17.90;8.95;;;;;;;8.54;100.00;101441.34;5074182;28;20025;-73
2023/04/07 04:40:52;;;;;;;18.90;9.35;;;;;;;8.51;100.00;101443.88;5073972;28;20028;-73
2023/04/07 04:43:17;;;;;;;16.77;9.13;;;;;;;8.43;100.00;101443.66;5074177;28;20024;-73
2023/04/07 04:45:43;;;;;;;16.02;8.75;;;;;;;8.39;100.00;101438.25;5074028;28;20396;-74
2023/04/07 04:48:09;;;;;;;18.63;9.10;;;;;;;8.36;100.00;101451.31;5073989;28;20102;-73
2023/04/07 04:50:35;;;;;;;16.52;8.85;;;;;;;8.28;100.00;101453.72;5074012;28;20029;-73
2023/04/07 04:53:01;;;;;;;17.05;8.75;;;;;;;8.25;100.00;101451.88;5073850;28;20120;-73
2023/04/07 04:55:26;;;;;;;21.63;9.20;;;;;;;8.23;100.00;101458.84;5073885;28;20107;-73
2023/04/07 04:57:51;;;;;;;16.95;8.40;;;;;;;8.22;100.00;101471.97;5074157;28;20036;-73
2023/04/07 05:00:17;;;;;;;17.30;8.43;;;;;;;8.23;100.00;101466.75;5074094;28;20070;-73
2023/04/07 05:02:43;;;;;;;17.30;7.93;;;;;;;8.22;100.00;101469.31;5073731;28;20039;-73
2023/04/07 05:05:08;;;;;;;19.48;8.63;;;;;;;8.22;100.00;101467.63;5072290;28;20063;-73
2023/04/07 05:07:33;;;;;;;14.93;8.35;;;;;;;8.25;100.00;101469.41;5073923;28;20037;-73
2023/04/07 05:10:00;;;;;;;18.30;8.85;;;;;;;8.27;100.00;101473.91;5073685;28;20024;-73
2023/04/07 05:12:26;;;;;;;21.13;8.40;;;;;;;8.29;100.00;101479.19;5073646;28;20115;-73
2023/04/07 05:14:54;;;;;;;17.38;8.05;;;;;;;8.34;100.00;101474.97;5073554;28;20111;-73
2023/04/07 05:17:19;;;;;;;23.45;8.65;;;;;;;8.34;100.00;101469.69;5072210;28;20029;-74
2023/04/07 05:19:45;;;;;;;18.67;8.45;;;;;;;8.34;100.00;101474.97;5055528;28;20035;-74
2023/04/07 05:22:13;;;;;;;22.58;8.32;;;;;;;8.34;100.00;101482.84;5073470;28;20370;-73
2023/04/07 05:24:39;;;;;;;19.95;8.75;;;;;;;8.36;100.00;101481.19;5073447;28;20032;-74
2023/04/07 05:27:04;;;;;;;16.90;9.07;;;;;;;8.34;100.00;101479.34;5073214;28;20474;-74
2023/04/07 05:29:30;;;;;;;22.10;8.38;;;;;;;8.37;100.00;101488.25;5073405;28;20485;-74
2023/04/07 05:31:55;;;;;;;19.58;8.93;;;;;;;8.37;100.00;101488.25;5073488;28;20422;-73
2023/04/07 05:34:21;;;;;;;17.67;8.48;;;;;;;8.38;100.00;101494.41;5073218;28;20035;-74
2023/04/07 05:36:46;;;;;;;16.08;7.82;;;;;;;8.37;100.00;101495.28;5072786;28;20028;-73
2023/04/07 05:39:12;;;;;;;23.80;8.88;;;;;;;8.34;100.00;101482.84;5073262;28;20052;-73
2023/04/07 05:41:37;;;;;;;17.63;8.35;;;;;;;8.40;100.00;101490.09;5073032;28;20044;-73
2023/04/07 05:44:02;;;;;;;18.17;8.65;;;;;;;8.43;100.00;101495.44;5073128;28;20481;-73
2023/04/07 05:46:28;;;;;;;19.42;8.98;;;;;;;8.45;100.00;101499.03;5073222;28;20049;-73
2023/04/07 05:48:53;;;;;;;17.80;8.18;;;;;;;8.48;100.00;101491.22;5071739;28;20028;-73
2023/04/07 05:51:28;;;;;;;18.30;8.30;;;;;;;8.54;100.00;101496.66;5071718;28;20384;-73
2023/04/07 05:53:53;;;;;;;19.15;8.82;;;;;;;8.52;100.00;101496.63;5073236;28;20492;-73
2023/04/07 05:56:20;;;;;;;23.15;9.25;;;;;;;8.52;100.00;101490.44;5072988;28;20041;-74
2023/04/07 05:58:46;;;;;;;21.33;8.88;;;;;;;8.51;100.00;101494.81;5073055;28;20110;-73
2023/04/07 06:01:14;;;;;;;16.13;8.98;;;;;;;8.50;100.00;101498.31;5073088;28;20107;-72
2023/04/07 06:03:39;;;;;;;18.10;9.40;;;;;;;8.50;100.00;101502.69;5073185;28;20037;-73
2023/04/07 06:06:05;;;;;;;17.27;9.25;;;;;;;8.55;100.00;101505.47;5072548;28;20071;-73
2023/04/07 06:08:30;;;;;;;19.25;9.43;;;;;;;8.56;100.00;101504.59;5073133;28;20033;-73
2023/04/07 06:10:56;;;;;;;17.52;9.05;;;;;;;8.57;100.00;101515.22;5072687;28;20501;-73
2023/04/07 06:13:21;;;;;;;19.25;9.55;;;;;;;8.60;100.00;101507.38;5072821;28;20056;-73
2023/04/07 06:15:46;;;;;;;20.70;10.30;;;;;;;8.60;100.00;101510.00;5072839;28;20029;-73
2023/04/07 06:18:12;;;;;;;22.00;10.20;;;;;;;8.60;100.00;101519.66;5072697;28;20033;-73
2023/04/07 06:20:37;;;;;;;21.02;9.85;;;;;;;8.63;100.00;101514.47;5072759;28;20451;-73
2023/04/07 06:23:03;;;;;;;21.48;9.52;;;;;;;8.70;100.00;101517.34;5073015;28;20037;-73
2023/04/07 06:25:28;;;;;;;19.65;10.15;;;;;;;8.72;100.00;101527.91;5072606;28;20029;-73
2023/04/07 06:27:54;;;;;;;19.38;9.90;;;;;;;8.74;100.00;101515.69;5072619;28;20115;-73
2023/04/07 06:30:19;;;;;;;24.23;10.80;;;;;;;8.77;100.00;101529.81;5072958;28;20037;-73
2023/04/07 06:32:45;;;;;;;23.98;11.20;;;;;;;8.84;100.00;101532.66;5072639;28;20021;-74
2023/04/07 06:35:11;;;;;;;24.90;11.20;;;;;;;8.85;100.00;101532.69;5072652;28;20063;-74
2023/04/07 06:37:38;;;;;;;26.45;11.57;;;;;;;8.86;100.00;101536.22;5072508;28;20050;-74
2023/04/07 06:40:04;;;;;;;20.67;10.52;;;;;;;8.88;100.00;101530.16;5072734;28;20457;-74
2023/04/07 06:42:29;;;;;;;26.45;11.75;;;;;;;8.89;100.00;101541.59;5072210;28;20437;-74
2023/04/07 06:44:55;;;;;;;21.40;11.68;;;;;;;8.91;100.00;101542.53;5072216;28;20029;-74
2023/04/07 06:47:20;;;;;;;22.90;12.60;;;;;;;8.95;100.00;101547.94;5071344;28;20033;-72
2023/04/07 06:49:46;;;;;;;26.98;12.07;;;;;;;9.01;100.00;101539.31;5076684;28;20025;-74
2023/04/07 06:52:11;;;;;;;26.77;11.75;;;;;;;9.06;100.00;101549.97;5077045;28;20120;-74
2023/04/07 06:54:36;;;;;;;23.02;11.55;;;;;;;9.09;100.00;101543.06;5076681;28;20361;-73
2023/04/07 06:57:02;;;;;;;22.73;11.48;;;;;;;9.10;100.00;101546.56;5076668;28;20090;-74
2023/04/07 06:59:27;;;;;;;24.45;12.52;;;;;;;9.12;100.00;101552.75;5076105;28;20028;-74
2023/04/07 07:01:53;;;;;;;27.65;12.40;;;;;;;9.10;100.00;101550.09;5076072;28;20123;-74
2023/04/07 07:04:18;;;;;;;19.42;11.32;;;;;;;9.13;100.00;101551.94;5076351;28;20387;-75
2023/04/07 07:06:43;;;;;;;20.67;11.38;;;;;;;9.14;100.00;101562.53;5075881;28;20049;-74
2023/04/07 07:09:09;;;;;;;24.50;11.65;;;;;;;9.16;100.00;101557.28;5076345;28;20116;-73
2023/04/07 07:11:34;;;;;;;25.55;11.93;;;;;;;9.13;100.00;101563.38;5075677;28;20496;-74
2023/04/07 07:14:00;;;;;;;23.30;11.30;;;;;;;9.13;100.00;101559.84;5076105;28;20024;-74
2023/04/07 07:16:28;;;;;;;17.67;10.85;;;;;;;9.14;100.00;101565.16;5075849;28;20115;-74
2023/04/07 07:18:54;;;;;;;24.73;11.10;;;;;;;9.16;100.00;101558.16;5075816;28;20081;-73
2023/04/07 07:21:19;;;;;;;20.30;10.88;;;;;;;9.15;100.00;101566.03;5075957;28;20112;-74
2023/04/07 07:23:48;;;;;;;19.70;10.60;;;;;;;9.17;100.00;101570.53;5075691;28;20067;-73
2023/04/07 07:26:13;;;;;;;20.67;10.70;;;;;;;9.20;100.00;101569.69;5075868;28;20051;-73
2023/04/07 07:28:38;;;;;;;24.88;9.60;;;;;;;9.24;100.00;101561.91;5075874;28;20470;-73
2023/04/07 07:31:14;;;;;;;19.48;9.70;;;;;;;9.32;100.00;101563.88;5075910;28;20108;-73
2023/04/07 07:33:42;;;;;;;18.88;10.13;;;;;;;9.49;100.00;101566.13;5075831;28;20036;-73
2023/04/07 07:36:10;;;;;;;20.77;8.55;;;;;;;9.70;100.00;101562.25;5075527;28;20079;-73
2023/04/07 07:38:36;;;;;;;14.55;6.78;;;;;;;9.86;100.00;101569.72;5075687;28;20028;-73
2023/04/07 07:41:02;;;;;;;11.57;6.72;;;;;;;9.96;99.82;101571.72;5075339;28;20142;-73
2023/04/07 07:43:27;;;;;;;10.48;6.03;;;;;;;10.04;98.37;101579.84;5075756;28;20373;-73
2023/04/07 07:45:53;;;;;;;13.45;6.00;;;;;;;10.07;96.79;101582.56;5075400;28;20541;-73
2023/04/07 07:48:18;;;;;;;11.40;5.78;;;;;;;10.04;95.73;101578.09;5075356;28;20104;-73
2023/04/07 07:50:44;;;;;;;13.30;5.75;;;;;;;10.03;95.84;101583.34;5075522;28;20032;-73
2023/04/07 07:53:10;;;;;;;12.00;5.53;;;;;;;9.98;94.98;101592.91;5075261;28;20054;-72
2023/04/07 07:55:35;;;;;;;10.70;5.68;;;;;;;9.96;95.47;101590.19;5075219;28;20033;-73
2023/04/07 07:58:03;;;;;;;13.25;5.15;;;;;;;9.96;94.28;101597.22;5075025;28;20037;-72
2023/04/07 08:00:29;;;;;;;7.38;4.20;;;;;;;9.93;92.66;101592.75;5075174;28;20035;-72
2023/04/07 08:02:54;;;;;;;9.35;3.83;;;;;;;9.90;92.57;101597.97;5074817;28;20025;-72
2023/04/07 08:05:20;;;;;;;9.00;4.55;;;;;;;9.87;92.75;101599.66;5074978;28;20049;-71
2023/04/07 08:07:45;;;;;;;8.68;4.38;;;;;;;9.88;93.76;101601.41;5075342;28;20048;-72
2023/04/07 08:10:14;;;;;;;10.02;4.20;;;;;;;9.92;93.96;101606.81;5075257;28;20078;-72
2023/04/07 08:12:40;;;;;;;13.45;4.35;;;;;;;9.95;93.42;101611.28;5074098;28;20028;-71
2023/04/07 08:15:08;;;;;;;11.98;4.18;;;;;;;9.99;93.50;101615.81;5074743;28;20021;-72
2023/04/07 08:17:34;;;;;;;7.93;3.90;;;;;;;10.04;92.26;101622.97;5074472;28;20048;-72
2023/04/07 08:20:00;;;;;;;10.48;3.83;;;;;;;10.07;91.73;101614.25;5074625;28;20025;-72
2023/04/07 08:22:25;;;;;;;7.82;3.58;;;;;;;10.14;92.68;101618.81;5074963;28;20035;-73
2023/04/07 08:24:54;;;;;;;12.35;4.38;;;;;;;10.18;92.59;101618.03;5074701;28;20040;-73
2023/04/07 08:27:20;;;;;;;8.52;4.15;;;;;;;10.27;92.71;101622.69;5074488;28;20077;-72
2023/04/07 08:29:57;;;;;;;9.15;3.70;;;;;;;10.28;91.87;101612.19;5074746;28;20086;-72
2023/04/07 08:32:22;;;;;;;10.18;4.00;;;;;;;10.31;90.93;101618.38;5074555;28;20034;-72
2023/04/07 08:34:47;;;;;;;8.43;3.75;;;;;;;10.30;90.61;101620.13;5074593;28;20028;-72
2023/04/07 08:37:13;;;;;;;8.77;4.28;;;;;;;10.30;91.08;101628.03;5074404;28;20481;-72
2023/04/07 08:39:38;;;;;;;7.28;3.90;;;;;;;10.30;91.71;101625.41;5074595;28;20033;-72
2023/04/07 08:42:05;;;;;;;9.10;3.95;;;;;;;10.33;91.59;101628.13;5074099;28;20078;-72
2023/04/07 08:44:31;;;;;;;8.38;3.95;;;;;;;10.32;91.36;101630.72;5074198;28;20028;-71
2023/04/07 08:47:00;;;;;;;9.57;4.00;;;;;;;10.30;90.42;101633.34;5074255;28;20050;-72
2023/04/07 08:49:28;;;;;;;14.27;4.00;;;;;;;10.25;90.44;101635.88;5074211;28;20071;-72
2023/04/07 08:51:58;;;;;;;6.68;3.50;;;;;;;10.23;90.06;101642.81;5072417;28;20033;-72
2023/04/07 08:54:23;;;;;;;9.32;3.50;;;;;;;10.24;90.45;101636.72;5073261;28;20068;-72
2023/04/07 08:56:49;;;;;;;9.48;3.70;;;;;;;10.27;90.31;101643.81;5074121;28;20056;-72
2023/04/07 08:59:17;;;;;;;8.43;3.10;;;;;;;10.32;89.67;101646.56;5074133;28;20178;-72
2023/04/07 09:01:43;;;;;;;8.35;3.08;;;;;;;10.40;89.49;101645.91;5073731;28;20021;-72
2023/04/07 09:04:09;;;;;;;10.13;3.15;;;;;;;10.44;87.56;101645.13;5073745;28;20533;-73
2023/04/07 09:06:35;;;;;;;8.93;3.08;;;;;;;10.49;87.92;101648.78;5073066;28;20055;-72
2023/04/07 09:09:02;;;;;;;10.73;2.85;;;;;;;10.56;87.75;101657.72;5072965;28;20037;-73
2023/04/07 09:11:28;;;;;;;7.07;2.97;;;;;;;10.63;86.88;101657.03;5073204;28;20047;-72
2023/04/07 09:13:55;;;;;;;8.25;2.83;;;;;;;10.64;85.65;101656.16;5074362;28;20087;-72
2023/04/07 09:16:21;;;;;;;7.47;2.80;;;;;;;10.67;87.05;101658.91;5074149;28;20025;-72
2023/04/07 09:18:46;;;;;;;6.00;2.78;;;;;;;10.69;85.98;101654.53;5073893;28;20388;-73
2023/04/07 09:21:12;;;;;;;12.90;3.03;;;;;;;10.70;85.68;101658.94;5073484;28;20104;-72
2023/04/07 09:23:40;;;;;;;8.85;2.88;;;;;;;10.70;85.88;101658.94;5073455;28;20029;-72
2023/04/07 09:26:22;;;;;;;11.85;3.30;;;;;;;10.69;85.42;101658.91;5073493;28;20035;-73
2023/04/07 09:28:57;;;;;;;8.70;3.35;;;;;;;10.69;86.07;101661.56;5073367;28;20047;-72
2023/04/07 09:31:25;;;;;;;7.43;3.03;;;;;;;10.74;86.49;101665.19;5073425;28;20032;-70
2023/04/07 09:33:51;;;;;;;7.82;2.90;;;;;;;10.71;86.46;101668.69;5073241;28;20028;-69
2023/04/07 09:36:17;;;;;;;8.25;2.90;;;;;;;10.67;85.05;101661.53;5072914;28;20392;-70
2023/04/07 09:38:44;;;;;;;9.27;2.92;;;;;;;10.65;85.35;101667.63;5073084;28;20025;-70
2023/04/07 09:41:12;;;;;;;9.25;3.03;;;;;;;10.64;85.97;101660.56;5072310;28;20484;-69
2023/04/07 09:43:47;;;;;;;7.72;3.00;;;;;;;10.57;85.12;101663.91;5073521;28;20043;-69
2023/04/07 09:46:17;;;;;;;10.20;3.17;;;;;;;10.62;86.84;101663.19;5073139;28;20112;-70
2023/04/07 09:48:44;;;;;;;7.97;2.95;;;;;;;10.66;86.48;101667.69;5071720;28;20039;-69
2023/04/07 09:51:13;;;;;;;6.30;2.88;;;;;;;10.73;86.28;101660.78;5073265;28;20032;-69
2023/04/07 09:53:49;;;;;;;7.45;3.40;;;;;;;10.74;86.13;101658.16;5073159;28;20032;-69
2023/04/07 09:56:21;;;;;;;10.57;3.13;;;;;;;10.80;85.21;101667.13;5073065;28;20469;-69
2023/04/07 09:58:47;;;;;;;11.65;3.00;;;;;;;10.83;86.24;101668.03;5073090;28;20020;-71
2023/04/07 10:01:16;;;;;;;10.32;3.35;;;;;;;10.86;85.65;101670.78;5073358;28;20117;-71
2023/04/07 10:03:42;;;;;;;6.68;3.05;;;;;;;10.89;85.60;101668.22;5073136;28;20021;-71
2023/04/07 10:06:07;;;;;;;8.65;3.10;;;;;;;10.93;84.95;101669.19;5072883;28;20035;-71
2023/04/07 10:08:35;;;;;;;8.20;2.88;;;;;;;10.89;84.07;101675.25;5072703;28;20545;-67
2023/04/07 10:11:04;;;;;;;8.73;2.90;;;;;;;10.80;84.20;101677.69;5071350;28;20111;-68
2023/04/07 10:13:32;;;;;;;11.07;3.20;;;;;;;10.70;84.98;101677.44;5072521;28;20082;-68
2023/04/07 10:15:58;;;;;;;12.02;3.55;;;;;;;10.60;84.40;101685.13;5073007;28;20055;-67
2023/04/07 10:18:35;;;;;;;11.68;3.20;;;;;;;10.53;85.17;101689.38;5073090;28;20028;-65
2023/04/07 10:21:06;;;;;;;9.75;3.03;;;;;;;10.49;85.63;101682.22;5073323;28;20032;-66
2023/04/07 10:24:09;;;;;;;10.73;2.83;;;;;;;10.40;84.46;101687.28;5077217;28;20063;-67
2023/04/07 10:26:37;;;;;;;10.95;3.00;;;;;;;10.28;84.84;101701.09;5076906;28;20083;-66
2023/04/07 10:29:10;;;;;;;11.00;3.53;;;;;;;10.26;86.04;101697.50;5076806;28;20457;-67
2023/04/07 10:31:37;;;;;;;13.40;3.05;;;;;;;10.27;85.55;101699.28;5077009;28;20068;-67
2023/04/07 10:34:02;;;;;;;9.65;3.55;;;;;;;10.28;86.34;101701.97;5076793;28;20112;-67
2023/04/07 10:36:28;;;;;;;7.72;3.60;;;;;;;10.33;86.71;101696.81;5076754;28;20569;-66
2023/04/07 10:39:08;;;;;;;10.68;3.33;;;;;;;10.43;86.84;101706.75;5076798;28;20036;-66
2023/04/07 10:41:35;;;;;;;7.85;2.90;;;;;;;10.49;85.34;101709.56;5076372;28;20486;-67
2023/04/07 10:44:05;;;;;;;6.57;2.70;;;;;;;10.59;85.53;101708.03;5074898;28;20020;-67
2023/04/07 10:47:00;;;;;;;11.02;2.88;;;;;;;10.67;86.26;101698.53;5076309;28;20086;-69
2023/04/07 10:49:26;;;;;;;6.72;2.63;;;;;;;10.78;84.92;101702.31;5073872;28;20036;-68
2023/04/07 10:52:13;;;;;;;8.93;3.20;;;;;;;10.96;84.83;101706.25;5076168;28;20446;-67
2023/04/07 10:54:40;;;;;;;7.53;2.63;;;;;;;11.10;83.38;101709.22;5076251;28;20021;-67
2023/04/07 10:57:11;;;;;;;9.52;3.03;;;;;;;11.20;83.61;101711.19;5076218;28;20024;-67
2023/04/07 10:59:39;;;;;;;11.17;2.90;;;;;;;11.25;83.04;101705.13;5076459;28;20110;-67
2023/04/07 11:02:11;;;;;;;12.38;3.20;;;;;;;11.27;83.29;101713.13;5076179;28;20279;-68
2023/04/07 11:04:40;;;;;;;8.07;2.78;;;;;;;11.24;83.36;101713.94;5076105;28;20047;-69
2023/04/07 11:07:06;;;;;;;9.18;3.15;;;;;;;11.12;82.97;101718.97;5076026;28;20474;-68
2023/04/07 11:09:31;;;;;;;11.40;2.92;;;;;;;11.03;81.94;101716.09;5075890;28;20053;-68
2023/04/07 11:11:57;;;;;;;9.35;2.90;;;;;;;10.90;81.86;101719.34;5075926;28;20120;-68
2023/04/07 11:14:26;;;;;;;13.93;3.25;;;;;;;10.83;81.78;101720.94;5076084;28;20036;-68
2023/04/07 11:16:52;;;;;;;12.15;3.08;;;;;;;10.78;82.22;101730.50;5076090;28;20107;-68
2023/04/07 11:19:18;;;;;;;10.20;3.13;;;;;;;10.81;83.50;101722.66;5075885;28;20438;-68